sensor_id;sensor_type;location;lat;lon;timestamp;P1;durP1;ratioP1;P2;durP2;ratioP2
40537;SDS011;27925;41.874;12.526;2023-07-29T00:04:01;17.50;;;11.25;;
40537;SDS011;27925;41.874;12.526;2023-07-29T00:06:27;12.65;;;5.32;;
40537;SDS011;27925;41.874;12.526;2023-07-29T00:08:52;12.27;;;3.78;;
40537;SDS011;27925;41.874;12.526;2023-07-29T00:11:18;12.70;;;5.95;;
40537;SDS011;27925;41.874;12.526;2023-07-29T00:13:44;10.15;;;4.85;;
40537;SDS011;27925;41.874;12.526;2023-07-29T00:16:10;12.63;;;6.22;;
40537;SDS011;27925;41.874;12.526;2023-07-29T00:18:35;11.80;;;3.72;;
40537;SDS011;27925;41.874;12.526;2023-07-29T00:21:01;11.75;;;5.78;;
40537;SDS011;27925;41.874;12.526;2023-07-29T00:23:27;9.38;;;3.40;;
40537;SDS011;27925;41.874;12.526;2023-07-29T00:25:53;13.02;;;5.18;;
40537;SDS011;27925;41.874;12.526;2023-07-29T00:28:18;13.80;;;6.68;;
40537;SDS011;27925;41.874;12.526;2023-07-29T00:30:44;12.38;;;6.30;;
40537;SDS011;27925;41.874;12.526;2023-07-29T00:33:10;14.68;;;7.47;;
40537;SDS011;27925;41.874;12.526;2023-07-29T00:35:35;15.57;;;5.60;;
40537;SDS011;27925;41.874;12.526;2023-07-29T00:38:01;10.55;;;4.20;;
40537;SDS011;27925;41.874;12.526;2023-07-29T00:40:27;9.90;;;3.10;;
40537;SDS011;27925;41.874;12.526;2023-07-29T00:42:54;10.05;;;3.65;;
40537;SDS011;27925;41.874;12.526;2023-07-29T00:45:19;12.63;;;3.70;;
40537;SDS011;27925;41.874;12.526;2023-07-29T00:47:45;11.02;;;3.85;;
40537;SDS011;27925;41.874;12.526;2023-07-29T00:50:12;11.60;;;3.90;;
40537;SDS011;27925;41.874;12.526;2023-07-29T00:52:39;8.30;;;3.47;;
40537;SDS011;27925;41.874;12.526;2023-07-29T00:55:05;8.60;;;3.58;;
40537;SDS011;27925;41.874;12.526;2023-07-29T00:57:32;14.20;;;3.75;;
40537;SDS011;27925;41.874;12.526;2023-07-29T00:59:59;12.50;;;3.92;;
40537;SDS011;27925;41.874;12.526;2023-07-29T01:02:25;10.15;;;4.03;;
40537;SDS011;27925;41.874;12.526;2023-07-29T01:04:52;11.93;;;4.22;;
40537;SDS011;27925;41.874;12.526;2023-07-29T01:10:12;14.95;;;4.10;;
40537;SDS011;27925;41.874;12.526;2023-07-29T01:12:48;10.25;;;3.90;;
40537;SDS011;27925;41.874;12.526;2023-07-29T01:18:04;13.15;;;4.63;;
40537;SDS011;27925;41.874;12.526;2023-07-29T01:20:33;12.55;;;4.00;;
40537;SDS011;27925;41.874;12.526;2023-07-29T01:23:01;8.63;;;3.72;;
40537;SDS011;27925;41.874;12.526;2023-07-29T01:25:26;12.77;;;4.03;;
40537;SDS011;27925;41.874;12.526;2023-07-29T01:27:52;8.82;;;4.25;;
40537;SDS011;27925;41.874;12.526;2023-07-29T01:30:19;12.20;;;3.88;;
40537;SDS011;27925;41.874;12.526;2023-07-29T01:32:53;11.05;;;3.65;;
40537;SDS011;27925;41.874;12.526;2023-07-29T01:35:25;13.43;;;4.00;;
40537;SDS011;27925;41.874;12.526;2023-07-29T01:38:14;12.23;;;3.80;;
40537;SDS011;27925;41.874;12.526;2023-07-29T01:40:47;9.75;;;3.60;;
40537;SDS011;27925;41.874;12.526;2023-07-29T01:43:14;11.73;;;4.10;;
40537;SDS011;27925;41.874;12.526;2023-07-29T01:45:40;16.25;;;3.97;;
40537;SDS011;27925;41.874;12.526;2023-07-29T01:48:06;12.95;;;3.67;;
40537;SDS011;27925;41.874;12.526;2023-07-29T01:50:32;10.65;;;3.75;;
40537;SDS011;27925;41.874;12.526;2023-07-29T01:53:01;9.18;;;3.28;;
40537;SDS011;27925;41.874;12.526;2023-07-29T01:55:27;10.20;;;3.40;;
40537;SDS011;27925;41.874;12.526;2023-07-29T01:57:53;8.32;;;3.35;;
40537;SDS011;27925;41.874;12.526;2023-07-29T02:00:19;9.77;;;3.47;;
40537;SDS011;27925;41.874;12.526;2023-07-29T02:02:45;9.30;;;3.05;;
40537;SDS011;27925;41.874;12.526;2023-07-29T02:05:11;9.85;;;3.50;;
40537;SDS011;27925;41.874;12.526;2023-07-29T02:07:37;11.57;;;3.60;;
40537;SDS011;27925;41.874;12.526;2023-07-29T02:10:03;10.63;;;3.20;;
40537;SDS011;27925;41.874;12.526;2023-07-29T02:12:29;11.02;;;3.58;;
40537;SDS011;27925;41.874;12.526;2023-07-29T02:14:54;8.30;;;3.58;;
40537;SDS011;27925;41.874;12.526;2023-07-29T02:17:20;10.13;;;3.35;;
40537;SDS011;27925;41.874;12.526;2023-07-29T02:19:46;10.13;;;3.00;;
40537;SDS011;27925;41.874;12.526;2023-07-29T02:22:15;8.25;;;3.00;;
40537;SDS011;27925;41.874;12.526;2023-07-29T02:24:42;8.98;;;2.70;;
40537;SDS011;27925;41.874;12.526;2023-07-29T02:27:08;8.32;;;3.05;;
40537;SDS011;27925;41.874;12.526;2023-07-29T02:29:33;7.43;;;2.97;;
40537;SDS011;27925;41.874;12.526;2023-07-29T02:31:59;9.13;;;2.60;;
40537;SDS011;27925;41.874;12.526;2023-07-29T02:34:25;8.93;;;2.97;;
40537;SDS011;27925;41.874;12.526;2023-07-29T02:36:51;7.03;;;2.60;;
40537;SDS011;27925;41.874;12.526;2023-07-29T02:39:16;6.60;;;2.95;;
40537;SDS011;27925;41.874;12.526;2023-07-29T02:41:42;7.50;;;3.00;;
40537;SDS011;27925;41.874;12.526;2023-07-29T02:44:08;9.68;;;2.60;;
40537;SDS011;27925;41.874;12.526;2023-07-29T02:46:33;6.85;;;2.85;;
40537;SDS011;27925;41.874;12.526;2023-07-29T02:48:59;10.73;;;2.97;;
40537;SDS011;27925;41.874;12.526;2023-07-29T02:51:26;8.57;;;3.45;;
40537;SDS011;27925;41.874;12.526;2023-07-29T02:53:52;9.25;;;3.05;;
40537;SDS011;27925;41.874;12.526;2023-07-29T02:56:17;9.48;;;2.65;;
40537;SDS011;27925;41.874;12.526;2023-07-29T02:58:43;8.55;;;2.92;;
40537;SDS011;27925;41.874;12.526;2023-07-29T03:01:09;6.53;;;3.10;;
40537;SDS011;27925;41.874;12.526;2023-07-29T03:03:35;9.32;;;2.78;;
40537;SDS011;27925;41.874;12.526;2023-07-29T03:06:04;8.70;;;2.80;;
40537;SDS011;27925;41.874;12.526;2023-07-29T03:08:32;6.40;;;2.40;;
40537;SDS011;27925;41.874;12.526;2023-07-29T03:10:57;7.90;;;2.42;;
40537;SDS011;27925;41.874;12.526;2023-07-29T03:13:24;8.55;;;2.90;;
40537;SDS011;27925;41.874;12.526;2023-07-29T03:15:50;8.38;;;2.40;;
40537;SDS011;27925;41.874;12.526;2023-07-29T03:18:16;8.80;;;2.75;;
40537;SDS011;27925;41.874;12.526;2023-07-29T03:20:41;8.38;;;2.40;;
40537;SDS011;27925;41.874;12.526;2023-07-29T03:23:07;6.25;;;2.50;;
40537;SDS011;27925;41.874;12.526;2023-07-29T03:25:33;6.63;;;2.72;;
40537;SDS011;27925;41.874;12.526;2023-07-29T03:27:59;8.55;;;2.63;;
40537;SDS011;27925;41.874;12.526;2023-07-29T03:30:25;4.57;;;2.20;;
40537;SDS011;27925;41.874;12.526;2023-07-29T03:32:50;7.63;;;2.70;;
40537;SDS011;27925;41.874;12.526;2023-07-29T03:35:16;6.75;;;2.28;;
40537;SDS011;27925;41.874;12.526;2023-07-29T03:37:42;7.28;;;2.30;;
40537;SDS011;27925;41.874;12.526;2023-07-29T03:40:08;7.68;;;2.65;;
40537;SDS011;27925;41.874;12.526;2023-07-29T03:42:34;8.90;;;2.33;;
40537;SDS011;27925;41.874;12.526;2023-07-29T03:45:00;8.75;;;2.55;;
40537;SDS011;27925;41.874;12.526;2023-07-29T03:47:27;11.25;;;2.97;;
40537;SDS011;27925;41.874;12.526;2023-07-29T03:49:52;9.07;;;2.83;;
40537;SDS011;27925;41.874;12.526;2023-07-29T03:52:19;6.32;;;2.58;;
40537;SDS011;27925;41.874;12.526;2023-07-29T03:54:45;7.47;;;2.65;;
40537;SDS011;27925;41.874;12.526;2023-07-29T03:57:10;6.32;;;2.60;;
40537;SDS011;27925;41.874;12.526;2023-07-29T03:59:36;9.70;;;2.72;;
40537;SDS011;27925;41.874;12.526;2023-07-29T04:02:02;8.63;;;2.85;;
40537;SDS011;27925;41.874;12.526;2023-07-29T04:04:27;8.65;;;2.92;;
40537;SDS011;27925;41.874;12.526;2023-07-29T04:06:53;6.97;;;2.72;;
40537;SDS011;27925;41.874;12.526;2023-07-29T04:09:19;7.78;;;2.45;;
40537;SDS011;27925;41.874;12.526;2023-07-29T04:11:44;7.70;;;2.63;;
40537;SDS011;27925;41.874;12.526;2023-07-29T04:14:10;8.90;;;3.05;;
40537;SDS011;27925;41.874;12.526;2023-07-29T04:16:36;12.65;;;2.70;;
40537;SDS011;27925;41.874;12.526;2023-07-29T04:19:01;6.00;;;2.45;;
40537;SDS011;27925;41.874;12.526;2023-07-29T04:21:27;6.65;;;2.75;;
40537;SDS011;27925;41.874;12.526;2023-07-29T04:23:53;7.00;;;2.60;;
40537;SDS011;27925;41.874;12.526;2023-07-29T04:26:18;7.57;;;2.78;;
40537;SDS011;27925;41.874;12.526;2023-07-29T04:28:44;8.70;;;3.40;;
40537;SDS011;27925;41.874;12.526;2023-07-29T04:31:10;8.90;;;3.13;;
40537;SDS011;27925;41.874;12.526;2023-07-29T04:33:35;8.40;;;2.72;;
40537;SDS011;27925;41.874;12.526;2023-07-29T04:36:01;8.93;;;2.67;;
40537;SDS011;27925;41.874;12.526;2023-07-29T04:38:30;9.85;;;2.97;;
40537;SDS011;27925;41.874;12.526;2023-07-29T04:41:00;9.13;;;2.80;;
40537;SDS011;27925;41.874;12.526;2023-07-29T04:43:30;6.22;;;2.65;;
40537;SDS011;27925;41.874;12.526;2023-07-29T04:45:57;10.20;;;3.00;;
40537;SDS011;27925;41.874;12.526;2023-07-29T04:48:22;7.68;;;2.88;;
40537;SDS011;27925;41.874;12.526;2023-07-29T04:50:48;9.10;;;2.67;;
40537;SDS011;27925;41.874;12.526;2023-07-29T04:53:14;10.63;;;2.72;;
40537;SDS011;27925;41.874;12.526;2023-07-29T04:55:43;8.30;;;2.65;;
40537;SDS011;27925;41.874;12.526;2023-07-29T04:58:09;11.70;;;2.55;;
40537;SDS011;27925;41.874;12.526;2023-07-29T05:00:35;12.57;;;3.17;;
40537;SDS011;27925;41.874;12.526;2023-07-29T05:03:00;8.18;;;2.58;;
40537;SDS011;27925;41.874;12.526;2023-07-29T05:05:26;7.85;;;2.88;;
40537;SDS011;27925;41.874;12.526;2023-07-29T05:07:52;8.15;;;2.78;;
40537;SDS011;27925;41.874;12.526;2023-07-29T05:10:18;8.57;;;2.80;;
40537;SDS011;27925;41.874;12.526;2023-07-29T05:12:44;7.30;;;2.55;;
40537;SDS011;27925;41.874;12.526;2023-07-29T05:15:10;6.72;;;2.78;;
40537;SDS011;27925;41.874;12.526;2023-07-29T05:17:35;10.32;;;3.15;;
40537;SDS011;27925;41.874;12.526;2023-07-29T05:20:01;7.45;;;2.47;;
40537;SDS011;27925;41.874;12.526;2023-07-29T05:22:27;7.68;;;2.30;;
40537;SDS011;27925;41.874;12.526;2023-07-29T05:24:53;8.50;;;2.80;;
40537;SDS011;27925;41.874;12.526;2023-07-29T05:27:19;5.47;;;2.25;;
40537;SDS011;27925;41.874;12.526;2023-07-29T05:29:44;6.07;;;2.47;;
40537;SDS011;27925;41.874;12.526;2023-07-29T05:32:10;7.85;;;3.00;;
40537;SDS011;27925;41.874;12.526;2023-07-29T05:34:36;7.35;;;2.97;;
40537;SDS011;27925;41.874;12.526;2023-07-29T05:37:02;10.18;;;2.72;;
40537;SDS011;27925;41.874;12.526;2023-07-29T05:39:28;10.10;;;2.60;;
40537;SDS011;27925;41.874;12.526;2023-07-29T05:41:54;11.23;;;3.33;;
40537;SDS011;27925;41.874;12.526;2023-07-29T05:44:19;6.00;;;2.60;;
40537;SDS011;27925;41.874;12.526;2023-07-29T05:46:45;9.55;;;3.05;;
40537;SDS011;27925;41.874;12.526;2023-07-29T05:49:11;7.78;;;2.63;;
40537;SDS011;27925;41.874;12.526;2023-07-29T05:51:37;8.10;;;2.75;;
40537;SDS011;27925;41.874;12.526;2023-07-29T05:54:02;7.13;;;2.60;;
40537;SDS011;27925;41.874;12.526;2023-07-29T05:56:28;7.88;;;2.63;;
40537;SDS011;27925;41.874;12.526;2023-07-29T05:58:54;11.95;;;3.25;;
40537;SDS011;27925;41.874;12.526;2023-07-29T06:01:20;9.35;;;2.70;;
40537;SDS011;27925;41.874;12.526;2023-07-29T06:03:46;7.63;;;2.78;;
40537;SDS011;27925;41.874;12.526;2023-07-29T06:06:12;9.25;;;3.00;;
40537;SDS011;27925;41.874;12.526;2023-07-29T06:08:38;6.93;;;2.67;;
40537;SDS011;27925;41.874;12.526;2023-07-29T06:11:04;8.85;;;2.55;;
40537;SDS011;27925;41.874;12.526;2023-07-29T06:13:31;7.53;;;2.50;;
40537;SDS011;27925;41.874;12.526;2023-07-29T06:15:57;8.73;;;2.63;;
40537;SDS011;27925;41.874;12.526;2023-07-29T06:18:23;5.45;;;2.15;;
40537;SDS011;27925;41.874;12.526;2023-07-29T06:20:49;10.18;;;2.88;;
40537;SDS011;27925;41.874;12.526;2023-07-29T06:23:15;9.23;;;2.72;;
40537;SDS011;27925;41.874;12.526;2023-07-29T06:25:41;10.50;;;3.00;;
40537;SDS011;27925;41.874;12.526;2023-07-29T06:28:08;6.90;;;2.13;;
40537;SDS011;27925;41.874;12.526;2023-07-29T06:30:34;8.38;;;2.63;;
40537;SDS011;27925;41.874;12.526;2023-07-29T06:33:00;9.35;;;2.42;;
40537;SDS011;27925;41.874;12.526;2023-07-29T06:35:26;9.35;;;2.60;;
40537;SDS011;27925;41.874;12.526;2023-07-29T06:37:51;7.72;;;2.40;;
40537;SDS011;27925;41.874;12.526;2023-07-29T06:40:17;5.88;;;2.85;;
40537;SDS011;27925;41.874;12.526;2023-07-29T06:42:43;8.48;;;3.05;;
40537;SDS011;27925;41.874;12.526;2023-07-29T06:45:08;7.93;;;2.70;;
40537;SDS011;27925;41.874;12.526;2023-07-29T06:47:35;8.95;;;2.97;;
40537;SDS011;27925;41.874;12.526;2023-07-29T06:50:00;7.50;;;2.50;;
40537;SDS011;27925;41.874;12.526;2023-07-29T06:52:26;8.57;;;2.50;;
40537;SDS011;27925;41.874;12.526;2023-07-29T06:54:52;9.63;;;2.55;;
40537;SDS011;27925;41.874;12.526;2023-07-29T06:57:18;13.80;;;2.70;;
40537;SDS011;27925;41.874;12.526;2023-07-29T06:59:43;6.55;;;2.35;;
40537;SDS011;27925;41.874;12.526;2023-07-29T07:02:09;7.40;;;2.60;;
40537;SDS011;27925;41.874;12.526;2023-07-29T07:04:34;9.02;;;2.75;;
40537;SDS011;27925;41.874;12.526;2023-07-29T07:07:00;7.75;;;3.25;;
40537;SDS011;27925;41.874;12.526;2023-07-29T07:09:26;6.65;;;2.35;;
40537;SDS011;27925;41.874;12.526;2023-07-29T07:11:51;10.35;;;3.25;;
40537;SDS011;27925;41.874;12.526;2023-07-29T07:14:17;10.45;;;2.58;;
40537;SDS011;27925;41.874;12.526;2023-07-29T07:16:43;8.95;;;2.72;;
40537;SDS011;27925;41.874;12.526;2023-07-29T07:19:09;7.28;;;2.92;;
40537;SDS011;27925;41.874;12.526;2023-07-29T07:21:35;7.43;;;2.60;;
40537;SDS011;27925;41.874;12.526;2023-07-29T07:24:01;10.10;;;3.28;;
40537;SDS011;27925;41.874;12.526;2023-07-29T07:26:27;10.00;;;2.47;;
40537;SDS011;27925;41.874;12.526;2023-07-29T07:28:52;8.93;;;3.20;;
40537;SDS011;27925;41.874;12.526;2023-07-29T07:31:19;7.95;;;2.40;;
40537;SDS011;27925;41.874;12.526;2023-07-29T07:33:44;10.85;;;2.50;;
40537;SDS011;27925;41.874;12.526;2023-07-29T07:36:10;6.60;;;2.67;;
40537;SDS011;27925;41.874;12.526;2023-07-29T07:38:36;11.55;;;2.40;;
40537;SDS011;27925;41.874;12.526;2023-07-29T07:41:01;10.40;;;3.17;;
40537;SDS011;27925;41.874;12.526;2023-07-29T07:43:27;9.00;;;3.33;;
40537;SDS011;27925;41.874;12.526;2023-07-29T07:46:00;9.38;;;2.67;;
40537;SDS011;27925;41.874;12.526;2023-07-29T07:48:29;7.25;;;2.42;;
40537;SDS011;27925;41.874;12.526;2023-07-29T07:50:55;8.55;;;2.47;;
40537;SDS011;27925;41.874;12.526;2023-07-29T07:53:20;6.50;;;2.17;;
40537;SDS011;27925;41.874;12.526;2023-07-29T07:55:46;9.43;;;2.90;;
40537;SDS011;27925;41.874;12.526;2023-07-29T07:58:12;7.25;;;2.55;;
40537;SDS011;27925;41.874;12.526;2023-07-29T08:00:38;6.57;;;2.40;;
40537;SDS011;27925;41.874;12.526;2023-07-29T08:03:04;7.95;;;2.53;;
40537;SDS011;27925;41.874;12.526;2023-07-29T08:05:29;6.22;;;2.22;;
40537;SDS011;27925;41.874;12.526;2023-07-29T08:07:55;7.95;;;2.25;;
40537;SDS011;27925;41.874;12.526;2023-07-29T08:10:22;7.88;;;2.70;;
40537;SDS011;27925;41.874;12.526;2023-07-29T08:12:48;8.80;;;2.50;;
40537;SDS011;27925;41.874;12.526;2023-07-29T08:15:13;7.88;;;2.45;;
40537;SDS011;27925;41.874;12.526;2023-07-29T08:17:39;6.70;;;2.60;;
40537;SDS011;27925;41.874;12.526;2023-07-29T08:20:05;17.92;;;4.72;;
40537;SDS011;27925;41.874;12.526;2023-07-29T08:22:31;15.18;;;3.10;;
40537;SDS011;27925;41.874;12.526;2023-07-29T08:24:57;12.07;;;2.97;;
40537;SDS011;27925;41.874;12.526;2023-07-29T08:27:23;9.30;;;2.97;;
40537;SDS011;27925;41.874;12.526;2023-07-29T08:29:48;9.82;;;3.20;;
40537;SDS011;27925;41.874;12.526;2023-07-29T08:32:14;10.77;;;3.20;;
40537;SDS011;27925;41.874;12.526;2023-07-29T08:34:40;10.95;;;3.50;;
40537;SDS011;27925;41.874;12.526;2023-07-29T08:37:05;8.05;;;2.80;;
40537;SDS011;27925;41.874;12.526;2023-07-29T08:39:31;6.70;;;3.00;;
40537;SDS011;27925;41.874;12.526;2023-07-29T08:41:58;9.57;;;3.42;;
40537;SDS011;27925;41.874;12.526;2023-07-29T08:44:30;6.40;;;2.90;;
40537;SDS011;27925;41.874;12.526;2023-07-29T08:47:00;8.50;;;2.60;;
40537;SDS011;27925;41.874;12.526;2023-07-29T08:49:26;5.78;;;2.55;;
40537;SDS011;27925;41.874;12.526;2023-07-29T08:51:53;10.65;;;3.58;;
40537;SDS011;27925;41.874;12.526;2023-07-29T08:54:22;7.93;;;2.55;;
40537;SDS011;27925;41.874;12.526;2023-07-29T08:56:48;7.07;;;2.65;;
40537;SDS011;27925;41.874;12.526;2023-07-29T08:59:14;6.28;;;2.67;;
40537;SDS011;27925;41.874;12.526;2023-07-29T09:01:42;7.47;;;3.08;;
40537;SDS011;27925;41.874;12.526;2023-07-29T09:04:08;8.85;;;2.80;;
40537;SDS011;27925;41.874;12.526;2023-07-29T09:06:34;6.80;;;2.70;;
40537;SDS011;27925;41.874;12.526;2023-07-29T09:09:01;6.95;;;3.22;;
40537;SDS011;27925;41.874;12.526;2023-07-29T09:11:28;6.10;;;2.45;;
40537;SDS011;27925;41.874;12.526;2023-07-29T09:13:53;16.35;;;3.25;;
40537;SDS011;27925;41.874;12.526;2023-07-29T09:16:22;7.82;;;3.03;;
40537;SDS011;27925;41.874;12.526;2023-07-29T09:18:49;8.43;;;3.10;;
40537;SDS011;27925;41.874;12.526;2023-07-29T09:21:16;7.20;;;3.10;;
40537;SDS011;27925;41.874;12.526;2023-07-29T09:23:53;7.90;;;3.28;;
40537;SDS011;27925;41.874;12.526;2023-07-29T09:26:23;7.22;;;2.90;;
40537;SDS011;27925;41.874;12.526;2023-07-29T09:28:53;8.63;;;2.80;;
40537;SDS011;27925;41.874;12.526;2023-07-29T09:31:23;8.57;;;3.30;;
40537;SDS011;27925;41.874;12.526;2023-07-29T09:33:50;6.70;;;2.90;;
40537;SDS011;27925;41.874;12.526;2023-07-29T09:36:24;9.55;;;3.03;;
40537;SDS011;27925;41.874;12.526;2023-07-29T09:38:54;7.38;;;3.33;;
40537;SDS011;27925;41.874;12.526;2023-07-29T09:41:24;9.75;;;4.40;;
40537;SDS011;27925;41.874;12.526;2023-07-29T09:43:58;5.95;;;2.70;;
40537;SDS011;27925;41.874;12.526;2023-07-29T09:46:31;13.30;;;2.58;;
40537;SDS011;27925;41.874;12.526;2023-07-29T09:49:04;6.75;;;2.80;;
40537;SDS011;27925;41.874;12.526;2023-07-29T09:51:31;7.63;;;2.55;;
40537;SDS011;27925;41.874;12.526;2023-07-29T09:53:56;6.75;;;2.33;;
40537;SDS011;27925;41.874;12.526;2023-07-29T09:56:26;6.63;;;2.88;;
40537;SDS011;27925;41.874;12.526;2023-07-29T09:58:52;8.02;;;2.92;;
40537;SDS011;27925;41.874;12.526;2023-07-29T10:01:21;6.40;;;2.63;;
40537;SDS011;27925;41.874;12.526;2023-07-29T10:03:47;6.40;;;2.33;;
40537;SDS011;27925;41.874;12.526;2023-07-29T10:06:14;7.63;;;2.65;;
40537;SDS011;27925;41.874;12.526;2023-07-29T10:08:40;6.60;;;2.50;;
40537;SDS011;27925;41.874;12.526;2023-07-29T10:11:08;7.10;;;2.60;;
40537;SDS011;27925;41.874;12.526;2023-07-29T10:13:35;5.63;;;2.42;;
40537;SDS011;27925;41.874;12.526;2023-07-29T10:16:01;9.85;;;3.03;;
40537;SDS011;27925;41.874;12.526;2023-07-29T10:18:28;6.95;;;3.17;;
40537;SDS011;27925;41.874;12.526;2023-07-29T10:20:56;7.28;;;2.83;;
40537;SDS011;27925;41.874;12.526;2023-07-29T10:23:24;6.43;;;2.85;;
40537;SDS011;27925;41.874;12.526;2023-07-29T10:25:59;7.95;;;3.08;;
40537;SDS011;27925;41.874;12.526;2023-07-29T10:28:29;8.32;;;3.05;;
40537;SDS011;27925;41.874;12.526;2023-07-29T10:30:56;5.88;;;2.50;;
40537;SDS011;27925;41.874;12.526;2023-07-29T10:33:22;9.85;;;4.25;;
40537;SDS011;27925;41.874;12.526;2023-07-29T10:35:48;8.20;;;2.70;;
40537;SDS011;27925;41.874;12.526;2023-07-29T10:38:14;6.68;;;2.70;;
40537;SDS011;27925;41.874;12.526;2023-07-29T10:40:51;6.43;;;2.70;;
40537;SDS011;27925;41.874;12.526;2023-07-29T10:46:19;8.00;;;2.85;;
40537;SDS011;27925;41.874;12.526;2023-07-29T10:51:34;8.95;;;2.60;;
40537;SDS011;27925;41.874;12.526;2023-07-29T10:56:31;8.52;;;3.00;;
40537;SDS011;27925;41.874;12.526;2023-07-29T11:01:42;8.20;;;2.28;;
40537;SDS011;27925;41.874;12.526;2023-07-29T11:09:42;12.30;;;2.67;;
40537;SDS011;27925;41.874;12.526;2023-07-29T11:20:30;8.75;;;2.80;;
40537;SDS011;27925;41.874;12.526;2023-07-29T11:22:59;11.68;;;3.00;;
40537;SDS011;27925;41.874;12.526;2023-07-29T11:25:28;5.18;;;2.33;;
40537;SDS011;27925;41.874;12.526;2023-07-29T11:27:56;6.63;;;2.38;;
40537;SDS011;27925;41.874;12.526;2023-07-29T11:30:23;9.82;;;2.97;;
40537;SDS011;27925;41.874;12.526;2023-07-29T11:32:51;6.35;;;2.25;;
40537;SDS011;27925;41.874;12.526;2023-07-29T11:35:18;6.43;;;2.67;;
40537;SDS011;27925;41.874;12.526;2023-07-29T11:37:45;9.90;;;3.03;;
40537;SDS011;27925;41.874;12.526;2023-07-29T11:40:14;10.52;;;2.45;;
40537;SDS011;27925;41.874;12.526;2023-07-29T11:42:47;5.63;;;2.25;;
40537;SDS011;27925;41.874;12.526;2023-07-29T11:45:15;11.27;;;2.60;;
40537;SDS011;27925;41.874;12.526;2023-07-29T11:47:42;6.65;;;2.40;;
40537;SDS011;27925;41.874;12.526;2023-07-29T11:50:08;10.65;;;2.70;;
40537;SDS011;27925;41.874;12.526;2023-07-29T11:52:38;8.45;;;2.63;;
40537;SDS011;27925;41.874;12.526;2023-07-29T11:55:06;6.95;;;2.40;;
40537;SDS011;27925;41.874;12.526;2023-07-29T11:57:35;8.52;;;2.85;;
40537;SDS011;27925;41.874;12.526;2023-07-29T12:00:03;6.40;;;3.08;;
40537;SDS011;27925;41.874;12.526;2023-07-29T12:02:31;7.28;;;2.50;;
40537;SDS011;27925;41.874;12.526;2023-07-29T12:05:01;8.93;;;3.05;;
40537;SDS011;27925;41.874;12.526;2023-07-29T12:07:29;7.55;;;2.58;;
40537;SDS011;27925;41.874;12.526;2023-07-29T12:09:55;5.22;;;2.20;;
40537;SDS011;27925;41.874;12.526;2023-07-29T12:12:22;5.65;;;2.33;;
40537;SDS011;27925;41.874;12.526;2023-07-29T12:14:48;6.10;;;2.30;;
40537;SDS011;27925;41.874;12.526;2023-07-29T12:17:14;7.97;;;2.60;;
40537;SDS011;27925;41.874;12.526;2023-07-29T12:19:41;7.45;;;2.60;;
40537;SDS011;27925;41.874;12.526;2023-07-29T12:22:07;10.10;;;2.78;;
40537;SDS011;27925;41.874;12.526;2023-07-29T12:24:38;6.45;;;2.15;;
40537;SDS011;27925;41.874;12.526;2023-07-29T12:27:09;7.25;;;2.90;;
40537;SDS011;27925;41.874;12.526;2023-07-29T12:29:39;5.05;;;2.40;;
40537;SDS011;27925;41.874;12.526;2023-07-29T12:32:09;12.77;;;2.42;;
40537;SDS011;27925;41.874;12.526;2023-07-29T12:34:36;6.57;;;2.40;;
40537;SDS011;27925;41.874;12.526;2023-07-29T12:37:04;8.57;;;2.45;;
40537;SDS011;27925;41.874;12.526;2023-07-29T12:39:31;8.65;;;2.53;;
40537;SDS011;27925;41.874;12.526;2023-07-29T12:41:58;7.70;;;3.00;;
40537;SDS011;27925;41.874;12.526;2023-07-29T12:44:32;6.35;;;2.60;;
40537;SDS011;27925;41.874;12.526;2023-07-29T12:47:00;10.23;;;2.90;;
40537;SDS011;27925;41.874;12.526;2023-07-29T12:49:27;9.82;;;3.50;;
40537;SDS011;27925;41.874;12.526;2023-07-29T12:51:54;5.65;;;2.50;;
40537;SDS011;27925;41.874;12.526;2023-07-29T12:54:20;9.57;;;2.78;;
40537;SDS011;27925;41.874;12.526;2023-07-29T12:56:46;8.82;;;2.42;;
40537;SDS011;27925;41.874;12.526;2023-07-29T12:59:12;5.70;;;2.70;;
40537;SDS011;27925;41.874;12.526;2023-07-29T13:01:37;6.05;;;2.40;;
40537;SDS011;27925;41.874;12.526;2023-07-29T13:04:03;6.93;;;2.72;;
40537;SDS011;27925;41.874;12.526;2023-07-29T13:06:29;8.80;;;2.95;;
40537;SDS011;27925;41.874;12.526;2023-07-29T13:08:55;7.32;;;3.30;;
40537;SDS011;27925;41.874;12.526;2023-07-29T13:11:21;9.05;;;2.78;;
40537;SDS011;27925;41.874;12.526;2023-07-29T13:13:47;6.85;;;2.40;;
40537;SDS011;27925;41.874;12.526;2023-07-29T13:16:12;10.20;;;2.70;;
40537;SDS011;27925;41.874;12.526;2023-07-29T13:18:38;8.63;;;2.80;;
40537;SDS011;27925;41.874;12.526;2023-07-29T13:21:05;7.25;;;2.92;;
40537;SDS011;27925;41.874;12.526;2023-07-29T13:23:30;9.35;;;3.17;;
40537;SDS011;27925;41.874;12.526;2023-07-29T13:25:57;7.32;;;3.00;;
40537;SDS011;27925;41.874;12.526;2023-07-29T13:28:23;6.47;;;2.60;;
40537;SDS011;27925;41.874;12.526;2023-07-29T13:30:49;9.80;;;2.47;;
40537;SDS011;27925;41.874;12.526;2023-07-29T13:33:14;8.75;;;2.97;;
40537;SDS011;27925;41.874;12.526;2023-07-29T13:35:40;9.82;;;2.75;;
40537;SDS011;27925;41.874;12.526;2023-07-29T13:38:06;8.00;;;2.47;;
40537;SDS011;27925;41.874;12.526;2023-07-29T13:40:31;9.63;;;2.75;;
40537;SDS011;27925;41.874;12.526;2023-07-29T13:42:57;8.50;;;2.88;;
40537;SDS011;27925;41.874;12.526;2023-07-29T13:45:23;6.93;;;2.28;;
40537;SDS011;27925;41.874;12.526;2023-07-29T13:47:49;7.70;;;2.80;;
40537;SDS011;27925;41.874;12.526;2023-07-29T13:50:15;9.23;;;2.60;;
40537;SDS011;27925;41.874;12.526;2023-07-29T13:52:41;7.55;;;2.55;;
40537;SDS011;27925;41.874;12.526;2023-07-29T13:55:07;10.00;;;2.92;;
40537;SDS011;27925;41.874;12.526;2023-07-29T13:57:33;6.45;;;2.40;;
40537;SDS011;27925;41.874;12.526;2023-07-29T13:59:59;6.65;;;2.35;;
40537;SDS011;27925;41.874;12.526;2023-07-29T14:02:25;13.50;;;2.78;;
40537;SDS011;27925;41.874;12.526;2023-07-29T14:04:56;8.98;;;2.25;;
40537;SDS011;27925;41.874;12.526;2023-07-29T14:07:21;6.15;;;2.20;;
40537;SDS011;27925;41.874;12.526;2023-07-29T14:09:47;6.32;;;2.40;;
40537;SDS011;27925;41.874;12.526;2023-07-29T14:12:13;7.00;;;2.40;;
40537;SDS011;27925;41.874;12.526;2023-07-29T14:14:40;6.22;;;2.20;;
40537;SDS011;27925;41.874;12.526;2023-07-29T14:17:07;6.63;;;2.45;;
40537;SDS011;27925;41.874;12.526;2023-07-29T14:19:36;11.23;;;2.25;;
40537;SDS011;27925;41.874;12.526;2023-07-29T14:22:02;5.57;;;2.35;;
40537;SDS011;27925;41.874;12.526;2023-07-29T14:24:28;7.22;;;2.15;;
40537;SDS011;27925;41.874;12.526;2023-07-29T14:26:53;6.30;;;2.05;;
40537;SDS011;27925;41.874;12.526;2023-07-29T14:29:19;6.68;;;2.25;;
40537;SDS011;27925;41.874;12.526;2023-07-29T14:31:44;6.57;;;2.30;;
40537;SDS011;27925;41.874;12.526;2023-07-29T14:34:10;8.95;;;2.58;;
40537;SDS011;27925;41.874;12.526;2023-07-29T14:36:36;7.20;;;2.45;;
40537;SDS011;27925;41.874;12.526;2023-07-29T14:39:02;6.35;;;2.20;;
40537;SDS011;27925;41.874;12.526;2023-07-29T14:41:28;8.75;;;2.80;;
40537;SDS011;27925;41.874;12.526;2023-07-29T14:43:54;8.15;;;2.50;;
40537;SDS011;27925;41.874;12.526;2023-07-29T14:46:19;8.82;;;2.80;;
40537;SDS011;27925;41.874;12.526;2023-07-29T14:48:47;7.95;;;2.38;;
40537;SDS011;27925;41.874;12.526;2023-07-29T14:51:12;8.20;;;2.70;;
40537;SDS011;27925;41.874;12.526;2023-07-29T14:53:38;7.47;;;2.40;;
40537;SDS011;27925;41.874;12.526;2023-07-29T14:56:04;6.35;;;2.30;;
40537;SDS011;27925;41.874;12.526;2023-07-29T14:58:30;7.45;;;2.05;;
40537;SDS011;27925;41.874;12.526;2023-07-29T15:00:56;6.63;;;2.13;;